Meath Environmental Platform

Observations for Trim Market St

Time AQI Temp °C Hum % Pres Pa CO μg/m³ H₂S μg/m³ NO μg/m³ NO₂ μg/m³ O₃ μg/m³ SO₂ μg/m³ PM1 μg/m³ PM2.5 μg/m³ PM10 μg/m³
Wednesday 15 July 2026
23:06 1 19.7 67 56,692 0 0 0 7.33 24.12 0 6.41 8.59 13.33
23:05 1 19.6 67 56,729 0 0 0 8.37 25.02 0 6.41 9.09 13.98
23:04 1 19.7 67 56,760 0 0 0 9.05 23.91 0 6.41 9.09 13.99
23:03 1 19.7 67 56,788 0 0 0 12.46 19.18 0 7.13 8.61 12.05
23:02 1 19.7 67 56,828 0 0 0 10.87 21.64 0 7.13 11.07 15.94
23:01 1 19.7 67 56,861 0 0 0 9.17 23.48 0 6.41 8.61 12.71
23:00 1 19.7 66 56,893 0 0 0 7.69 27.32 0 6.41 9.11 13.36
22:59 1 19.8 66 56,923 0 0 0 8.27 24.84 0 6.41 8.63 13.36
22:58 1 19.8 66 56,949 0 0 0 7.58 27.08 0 5.7 7.65 11.42
22:57 1 19.8 66 56,976 0 0 0 7.78 26.7 0 7.13 8.63 12.72
22:56 1 19.8 66 57,004 0 0 0 7.09 27.01 0 6.41 9.13 14.02
22:54 1 19.8 66 57,057 0 0 0 6.42 27.54 0 5.7 7.67 10.78
22:53 1 19.8 66 57,076 0 0 0 7.13 32.51 0 7.13 8.66 12.74
22:51 1 19.9 66 57,101 0 0 0 6.81 27.81 0 7.13 8.17 12.74
22:50 1 19.9 66 57,117 0 0 0 7.12 27.64 0 4.28 7.69 10.79
22:49 1 19.9 66 57,133 0 0 0 7.73 28.35 0 7.13 8.68 12.1
22:48 1 19.9 66 57,146 0 0 0 8.43 26.24 0 6.41 9.17 12.75
22:47 1 19.9 66 57,158 0 0 0 7.45 27.9 0 7.13 9.67 13.41
22:45 1 20 65 57,185 0 0 0 8.73 25.79 0 7.13 9.67 13.42
22:44 1 20 65 57,201 0 0 0 9.44 24.12 0 7.13 9.68 13.42